Time;durP1;ratioP1;P1;durP2;ratioP2;P2;SDS_P1;SDS_P2;PMS_P1;PMS_P2;Temp;Humidity;BMP_temperature;BMP_pressure;BME280_temperature;BME280_humidity;BME280_pressure;Samples;Min_cycle;Max_cycle;Signal;HPM_P1;HPM_P2
2022/03/01 00:00:42;;;;;;;21.33;10.15;;;3.60;64.40;;;;;;9186525;19;20247;-62
2022/03/01 00:03:50;;;;;;;20.13;10.48;;;3.50;64.30;;;;;;9180757;19;20025;-60
2022/03/01 00:06:55;;;;;;;18.75;9.77;;;3.50;64.40;;;;;;9183305;19;20026;-61
2022/03/01 00:10:00;;;;;;;17.40;9.07;;;3.50;64.40;;;;;;9181796;19;20025;-62
2022/03/01 00:13:07;;;;;;;18.52;9.98;;;3.40;64.40;;;;;;9184349;19;20014;-60
2022/03/01 00:16:12;;;;;;;19.42;9.23;;;3.40;64.50;;;;;;9185179;19;20073;-61
2022/03/01 00:19:20;;;;;;;17.67;9.40;;;3.40;64.60;;;;;;9184118;19;20467;-62
2022/03/01 00:22:25;;;;;;;17.75;9.43;;;3.30;64.50;;;;;;9182117;19;20021;-60
2022/03/01 00:25:30;;;;;;;17.02;8.45;;;3.30;64.50;;;;;;9181069;19;20052;-60
2022/03/01 00:28:35;;;;;;;18.63;8.30;;;3.30;64.60;;;;;;9176220;19;20033;-60
2022/03/01 00:31:40;;;;;;;15.48;8.25;;;3.30;64.60;;;;;;9181694;19;20037;-60
2022/03/01 00:34:48;;;;;;;18.83;8.75;;;3.30;64.60;;;;;;9178813;19;20010;-59
2022/03/01 00:37:53;;;;;;;22.20;9.05;;;3.20;64.60;;;;;;9183737;19;20023;-61
2022/03/01 00:40:58;;;;;;;14.43;8.82;;;3.20;64.60;;;;;;9184120;19;20018;-61
2022/03/01 00:44:04;;;;;;;18.42;9.35;;;3.20;64.70;;;;;;9179365;19;20483;-60
2022/03/01 00:47:09;;;;;;;14.35;8.23;;;3.20;64.70;;;;;;9179670;19;20357;-60
2022/03/01 00:50:16;;;;;;;14.48;7.80;;;3.20;64.70;;;;;;9181995;19;20014;-62
2022/03/01 00:53:21;;;;;;;18.15;9.35;;;3.10;64.70;;;;;;9178944;19;20624;-61
2022/03/01 00:56:26;;;;;;;16.63;8.73;;;3.10;64.70;;;;;;9184041;19;20031;-61
2022/03/01 00:59:31;;;;;;;16.23;8.90;;;3.10;64.70;;;;;;9183263;19;20029;-61
2022/03/01 01:02:36;;;;;;;16.45;8.00;;;3.10;64.80;;;;;;9180731;19;20589;-60
2022/03/01 01:05:44;;;;;;;16.70;8.30;;;3.10;64.80;;;;;;9184140;19;20838;-61
2022/03/01 01:08:49;;;;;;;17.08;8.70;;;3.00;64.80;;;;;;9178268;19;20025;-59
2022/03/01 01:11:54;;;;;;;15.93;8.52;;;3.10;64.80;;;;;;9181016;19;20018;-59
2022/03/01 01:14:59;;;;;;;19.02;8.77;;;3.00;64.80;;;;;;9181864;19;20014;-59
2022/03/01 01:18:04;;;;;;;17.50;8.60;;;3.00;64.80;;;;;;9181725;19;20018;-59
2022/03/01 01:21:12;;;;;;;21.40;9.82;;;3.00;64.90;;;;;;9180075;19;20023;-61
2022/03/01 01:24:17;;;;;;;17.65;9.00;;;3.00;64.90;;;;;;9179772;19;20025;-60
2022/03/01 01:27:22;;;;;;;14.73;8.27;;;3.00;64.90;;;;;;9175530;19;20022;-59
2022/03/01 01:30:30;;;;;;;15.73;9.35;;;2.90;64.90;;;;;;9180856;19;20018;-61
2022/03/01 01:33:35;;;;;;;18.48;9.18;;;2.90;64.90;;;;;;9177201;19;20030;-60
2022/03/01 01:36:43;;;;;;;17.38;9.07;;;2.90;64.90;;;;;;9180905;19;20026;-60
2022/03/01 01:39:48;;;;;;;14.82;8.63;;;2.90;65.00;;;;;;9182105;19;20368;-61
2022/03/01 01:42:55;;;;;;;15.73;8.40;;;2.90;65.00;;;;;;9179856;19;20022;-60
2022/03/01 01:46:00;;;;;;;17.27;8.18;;;2.80;65.00;;;;;;9181416;19;20023;-59
2022/03/01 01:49:06;;;;;;;16.92;8.70;;;2.80;65.10;;;;;;9177795;19;20022;-61
2022/03/01 01:52:13;;;;;;;18.92;9.40;;;2.80;65.00;;;;;;9177583;19;20015;-60
2022/03/01 01:55:20;;;;;;;17.13;8.68;;;2.80;65.10;;;;;;9179477;19;20360;-62
2022/03/01 01:58:31;;;;;;;17.45;9.57;;;2.70;65.10;;;;;;9179411;19;20141;-60
2022/03/01 02:01:36;;;;;;;17.15;8.93;;;2.70;65.10;;;;;;9178119;19;20014;-59
2022/03/01 02:04:42;;;;;;;20.05;9.20;;;2.70;65.10;;;;;;9177120;19;20018;-62
2022/03/01 02:07:52;;;;;;;15.82;9.35;;;2.70;65.20;;;;;;9181698;19;20018;-60
2022/03/01 02:10:57;;;;;;;18.42;8.82;;;2.60;65.10;;;;;;9178930;19;20079;-61
2022/03/01 02:14:03;;;;;;;17.90;9.32;;;2.70;65.20;;;;;;9178567;19;20017;-60
2022/03/01 02:17:12;;;;;;;17.58;9.27;;;2.60;65.20;;;;;;9179585;19;20364;-61
2022/03/01 02:20:22;;;;;;;15.88;8.70;;;2.60;65.20;;;;;;9177339;19;20014;-62
2022/03/01 02:23:27;;;;;;;14.82;8.68;;;2.60;65.30;;;;;;9178189;19;20749;-60
2022/03/01 02:26:32;;;;;;;14.93;8.20;;;2.60;65.30;;;;;;9178878;19;20024;-63
2022/03/01 02:29:37;;;;;;;20.45;8.88;;;2.60;65.30;;;;;;9170187;19;20646;-60
2022/03/01 02:32:43;;;;;;;19.15;9.05;;;2.60;65.30;;;;;;9177671;19;20027;-60
2022/03/01 02:35:51;;;;;;;18.25;8.68;;;2.60;65.40;;;;;;9178334;19;20022;-60
2022/03/01 02:38:56;;;;;;;16.05;8.77;;;2.60;65.40;;;;;;9177708;19;20612;-60
2022/03/01 02:42:01;;;;;;;15.88;8.77;;;2.60;65.40;;;;;;9177418;19;20018;-59
2022/03/01 02:45:07;;;;;;;16.58;8.68;;;2.50;65.30;;;;;;9176649;19;20011;-59
2022/03/01 02:48:13;;;;;;;15.77;8.85;;;2.60;65.40;;;;;;9175215;19;20426;-59
2022/03/01 02:51:21;;;;;;;16.48;8.48;;;2.60;65.40;;;;;;9175641;19;20015;-60
2022/03/01 02:54:26;;;;;;;20.48;10.00;;;2.60;65.50;;;;;;9177279;19;20010;-60
2022/03/01 02:57:31;;;;;;;17.80;9.23;;;2.60;65.50;;;;;;9178289;19;20115;-62
2022/03/01 03:00:36;;;;;;;17.33;9.10;;;2.60;65.50;;;;;;9179805;19;20012;-60
2022/03/01 03:03:41;;;;;;;18.95;9.80;;;2.60;65.60;;;;;;9176476;19;20094;-59
2022/03/01 03:06:49;;;;;;;16.05;9.05;;;2.60;65.60;;;;;;9176184;19;20022;-63
2022/03/01 03:09:54;;;;;;;16.88;9.52;;;2.60;65.50;;;;;;9175263;19;20342;-60
2022/03/01 03:12:59;;;;;;;18.83;9.85;;;2.60;65.60;;;;;;9175560;19;20016;-61
2022/03/01 03:16:04;;;;;;;14.73;8.30;;;2.60;65.50;;;;;;9176925;19;20021;-61
2022/03/01 03:19:10;;;;;;;15.48;8.32;;;2.50;65.60;;;;;;9178175;19;20014;-61
2022/03/01 03:22:19;;;;;;;17.75;8.77;;;2.50;65.50;;;;;;9176529;19;20052;-60
2022/03/01 03:25:24;;;;;;;16.13;8.88;;;2.50;65.50;;;;;;9174095;19;20018;-60
2022/03/01 03:28:29;;;;;;;20.75;9.10;;;2.50;65.60;;;;;;9172592;19;20010;-61
2022/03/01 03:31:34;;;;;;;17.20;8.88;;;2.50;65.60;;;;;;9174661;19;20029;-61
2022/03/01 03:34:39;;;;;;;17.83;9.63;;;2.50;65.60;;;;;;9175664;19;20357;-62
2022/03/01 03:37:47;;;;;;;17.30;8.85;;;2.50;65.60;;;;;;9177797;19;20015;-60
2022/03/01 03:40:52;;;;;;;22.10;8.65;;;2.50;65.70;;;;;;9178070;19;20022;-61
2022/03/01 03:43:58;;;;;;;21.52;8.73;;;2.50;65.70;;;;;;9174488;19;20635;-60
2022/03/01 03:47:03;;;;;;;18.95;9.20;;;2.40;66.00;;;;;;9174047;19;20375;-60
2022/03/01 03:50:10;;;;;;;17.13;8.63;;;2.40;65.70;;;;;;9174313;19;20022;-61
2022/03/01 03:53:18;;;;;;;16.50;8.68;;;2.40;65.80;;;;;;9174244;19;20014;-62
2022/03/01 03:56:23;;;;;;;16.42;9.23;;;2.40;65.80;;;;;;9175822;19;20010;-62
2022/03/01 03:59:29;;;;;;;16.35;9.15;;;2.40;65.90;;;;;;9176466;19;20093;-62
2022/03/01 04:02:34;;;;;;;18.45;8.95;;;2.40;65.80;;;;;;9176050;19;20006;-60
2022/03/01 04:05:39;;;;;;;19.10;9.60;;;2.30;65.80;;;;;;9171784;19;20041;-61
2022/03/01 04:08:47;;;;;;;17.85;9.23;;;2.30;65.80;;;;;;9174067;19;20026;-59
2022/03/01 04:11:52;;;;;;;17.13;9.15;;;2.30;65.80;;;;;;9183739;19;20494;-60
2022/03/01 04:14:57;;;;;;;18.58;9.50;;;2.30;65.80;;;;;;9181266;19;20015;-59
2022/03/01 04:18:02;;;;;;;16.02;8.50;;;2.20;65.70;;;;;;9184234;19;20052;-61
2022/03/01 04:21:10;;;;;;;16.10;8.93;;;2.30;65.90;;;;;;9182832;19;20023;-59
2022/03/01 04:24:18;;;;;;;22.83;9.80;;;2.20;65.90;;;;;;9184294;19;20027;-60
2022/03/01 04:27:23;;;;;;;18.52;9.20;;;2.20;66.00;;;;;;9176397;19;20025;-61
2022/03/01 04:30:28;;;;;;;17.17;9.40;;;2.20;65.90;;;;;;9179969;19;20614;-60
2022/03/01 04:33:35;;;;;;;18.05;9.32;;;2.20;66.00;;;;;;9181351;19;20006;-58
2022/03/01 04:36:40;;;;;;;18.17;9.15;;;2.20;66.00;;;;;;9182534;19;20014;-61
2022/03/01 04:39:48;;;;;;;16.30;9.15;;;2.20;66.00;;;;;;9185015;19;20022;-60
2022/03/01 04:42:54;;;;;;;20.42;9.60;;;2.20;66.10;;;;;;9184983;19;20476;-60
2022/03/01 04:46:00;;;;;;;19.88;9.40;;;2.20;66.20;;;;;;9180190;19;20021;-59
2022/03/01 04:49:05;;;;;;;18.80;8.95;;;2.20;66.20;;;;;;9180392;19;20019;-60
2022/03/01 04:52:10;;;;;;;17.33;9.35;;;2.10;66.10;;;;;;9181560;19;20475;-59
2022/03/01 04:55:18;;;;;;;23.77;9.98;;;2.10;66.20;;;;;;9180228;19;20405;-59
2022/03/01 04:58:23;;;;;;;15.73;9.82;;;2.10;66.20;;;;;;9181684;19;20018;-61
2022/03/01 05:01:28;;;;;;;19.20;9.30;;;2.20;66.30;;;;;;9181982;19;20022;-60
2022/03/01 05:04:33;;;;;;;21.52;10.20;;;2.10;66.20;;;;;;9179387;19;20006;-62
2022/03/01 05:07:39;;;;;;;17.48;9.88;;;2.20;66.30;;;;;;9184470;19;20018;-62
2022/03/01 05:10:47;;;;;;;20.40;10.15;;;2.20;66.30;;;;;;9180566;19;20464;-61
2022/03/01 05:13:52;;;;;;;19.77;9.35;;;2.20;66.40;;;;;;9180134;19;20022;-61
2022/03/01 05:16:57;;;;;;;19.17;8.60;;;2.20;66.40;;;;;;9180878;19;20014;-60
2022/03/01 05:20:02;;;;;;;17.63;9.95;;;2.20;66.40;;;;;;9179631;19;20048;-60
2022/03/01 05:23:07;;;;;;;18.60;10.10;;;2.20;66.50;;;;;;9180925;19;20007;-59
2022/03/01 05:26:16;;;;;;;16.55;9.25;;;2.20;66.50;;;;;;9181331;19;20022;-60
2022/03/01 05:29:21;;;;;;;17.85;8.73;;;2.20;66.50;;;;;;9177583;19;20022;-59
2022/03/01 05:32:27;;;;;;;21.13;10.25;;;2.20;66.50;;;;;;9178431;19;20022;-62
2022/03/01 05:35:33;;;;;;;17.70;9.35;;;2.20;66.60;;;;;;9180389;19;20472;-62
2022/03/01 05:38:38;;;;;;;18.88;9.75;;;2.20;66.60;;;;;;9179190;19;20021;-59
2022/03/01 05:41:46;;;;;;;18.40;9.63;;;2.20;66.80;;;;;;9181623;19;20748;-61
2022/03/01 05:44:51;;;;;;;18.75;10.15;;;2.20;66.60;;;;;;9180182;19;20014;-61
2022/03/01 05:47:56;;;;;;;17.85;10.05;;;2.20;66.60;;;;;;9180971;19;20026;-62
2022/03/01 05:51:03;;;;;;;25.65;10.57;;;2.20;66.60;;;;;;9177527;19;20038;-60
2022/03/01 05:54:08;;;;;;;19.58;10.68;;;2.20;66.60;;;;;;9179606;19;20525;-60
2022/03/01 05:57:16;;;;;;;20.33;11.20;;;2.30;66.70;;;;;;9179303;19;20036;-60
2022/03/01 06:00:22;;;;;;;18.33;9.80;;;2.30;66.80;;;;;;9178581;19;20014;-61
2022/03/01 06:03:27;;;;;;;21.73;10.07;;;2.30;66.80;;;;;;9179561;19;20487;-62
2022/03/01 06:06:32;;;;;;;19.30;10.20;;;2.30;66.80;;;;;;9177623;19;20015;-63
2022/03/01 06:09:37;;;;;;;20.63;10.88;;;2.30;66.80;;;;;;9180222;19;20014;-60
2022/03/01 06:12:45;;;;;;;18.25;9.88;;;2.30;66.80;;;;;;9176567;19;20014;-61
2022/03/01 06:15:51;;;;;;;21.40;10.45;;;2.30;66.80;;;;;;9178492;19;20029;-60
2022/03/01 06:18:56;;;;;;;20.38;10.80;;;2.40;66.90;;;;;;9178532;19;20026;-59
2022/03/01 06:22:02;;;;;;;19.92;9.48;;;2.40;66.90;;;;;;9179425;19;20011;-59
2022/03/01 06:25:08;;;;;;;17.73;10.50;;;2.40;66.90;;;;;;9179600;19;20475;-60
2022/03/01 06:28:16;;;;;;;20.08;10.18;;;2.40;66.90;;;;;;9174651;19;20026;-61
2022/03/01 06:31:21;;;;;;;27.40;10.75;;;2.40;67.00;;;;;;9178849;19;20651;-61
2022/03/01 06:34:26;;;;;;;19.38;10.30;;;2.40;67.00;;;;;;9178783;19;20481;-61
2022/03/01 06:37:32;;;;;;;25.00;10.65;;;2.50;67.00;;;;;;9176027;19;20015;-60
2022/03/01 06:40:36;;;;;;;24.92;11.00;;;2.50;67.00;;;;;;9179540;19;20015;-62
2022/03/01 06:43:44;;;;;;;19.55;10.02;;;2.50;67.00;;;;;;9177585;19;20018;-61
2022/03/01 06:46:50;;;;;;;23.17;12.07;;;2.50;67.00;;;;;;9176502;19;20499;-60
2022/03/01 06:49:55;;;;;;;19.95;9.85;;;2.50;67.00;;;;;;9178649;19;20373;-59
2022/03/01 06:53:00;;;;;;;18.85;10.18;;;2.50;67.00;;;;;;9178525;19;20089;-60
2022/03/01 06:56:07;;;;;;;21.27;10.07;;;2.60;67.00;;;;;;9176186;19;20022;-59
2022/03/01 06:59:14;;;;;;;21.23;9.50;;;2.60;67.10;;;;;;9176994;19;20022;-60
2022/03/01 07:02:19;;;;;;;23.35;10.68;;;2.60;67.10;;;;;;9175407;19;20022;-59
2022/03/01 07:05:28;;;;;;;19.17;9.55;;;2.60;67.10;;;;;;9176303;19;20018;-60
2022/03/01 07:08:34;;;;;;;20.70;9.63;;;2.60;67.20;;;;;;9176289;19;20019;-60
2022/03/01 07:11:41;;;;;;;19.27;10.55;;;2.70;67.10;;;;;;9169365;19;20022;-63
2022/03/01 07:14:49;;;;;;;24.08;10.60;;;2.70;67.10;;;;;;9167093;19;20023;-59
2022/03/01 07:17:54;;;;;;;20.90;10.93;;;2.70;67.10;;;;;;9171251;19;20015;-58
2022/03/01 07:20:59;;;;;;;18.95;10.30;;;2.70;67.10;;;;;;9171353;19;20082;-61
2022/03/01 07:24:05;;;;;;;22.35;10.80;;;2.70;67.10;;;;;;9174990;19;20026;-59
2022/03/01 07:27:10;;;;;;;19.85;9.90;;;2.70;67.20;;;;;;9166547;19;20630;-62
2022/03/01 07:30:18;;;;;;;17.85;9.77;;;2.80;67.20;;;;;;9173748;19;20035;-61
2022/03/01 07:33:23;;;;;;;20.05;11.38;;;2.80;67.30;;;;;;9175233;19;20013;-60
2022/03/01 07:36:28;;;;;;;23.85;11.23;;;2.90;67.40;;;;;;9172498;19;20019;-61
2022/03/01 07:39:33;;;;;;;20.75;10.68;;;2.90;67.40;;;;;;9170506;19;20021;-59
2022/03/01 07:42:38;;;;;;;21.35;10.57;;;3.00;67.50;;;;;;9173057;19;20030;-61
2022/03/01 07:45:46;;;;;;;22.40;10.00;;;3.10;67.70;;;;;;9178623;19;20018;-61
2022/03/01 07:48:51;;;;;;;22.15;10.50;;;3.20;67.70;;;;;;9184100;19;20025;-60
2022/03/01 07:51:56;;;;;;;19.50;9.73;;;3.30;67.70;;;;;;9186917;19;20471;-61
2022/03/01 07:55:01;;;;;;;20.92;11.07;;;3.40;67.70;;;;;;9184316;19;20037;-60
2022/03/01 07:58:06;;;;;;;22.50;10.32;;;3.50;67.80;;;;;;9180758;19;20015;-62
2022/03/01 08:01:14;;;;;;;17.90;9.75;;;3.70;67.90;;;;;;9180711;19;20019;-60
2022/03/01 08:04:20;;;;;;;19.80;10.23;;;3.80;68.00;;;;;;9182105;19;20329;-62
2022/03/01 08:07:25;;;;;;;22.58;10.90;;;4.00;67.90;;;;;;9179932;19;20060;-59
2022/03/01 08:10:30;;;;;;;20.20;9.55;;;4.20;67.90;;;;;;9184001;19;20014;-61
2022/03/01 08:13:36;;;;;;;24.20;10.88;;;4.40;67.80;;;;;;9183663;19;20010;-60
2022/03/01 08:16:43;;;;;;;24.10;10.82;;;4.50;67.60;;;;;;9184994;19;20344;-61
2022/03/01 08:19:49;;;;;;;22.90;11.02;;;4.70;67.60;;;;;;9181760;19;20023;-60
2022/03/01 08:22:54;;;;;;;20.80;10.30;;;4.80;67.50;;;;;;9173951;19;20037;-61
2022/03/01 08:25:59;;;;;;;19.13;9.63;;;4.90;67.40;;;;;;9178640;19;20110;-62
2022/03/01 08:29:04;;;;;;;26.50;13.50;;;5.10;67.40;;;;;;9166436;19;20030;-62
2022/03/01 08:32:12;;;;;;;18.13;10.05;;;5.20;67.40;;;;;;9175822;19;20023;-61
2022/03/01 08:35:18;;;;;;;19.15;9.93;;;5.30;67.30;;;;;;9180259;19;20464;-60
2022/03/01 08:38:23;;;;;;;18.77;10.10;;;5.40;67.30;;;;;;9183447;19;20095;-60
2022/03/01 08:41:28;;;;;;;18.95;9.95;;;5.50;67.20;;;;;;9176144;19;20025;-61
2022/03/01 08:44:33;;;;;;;21.33;9.88;;;5.60;67.20;;;;;;9182882;19;20018;-65
2022/03/01 08:47:42;;;;;;;20.83;9.65;;;5.70;67.10;;;;;;9176352;19;20031;-65
2022/03/01 08:50:47;;;;;;;15.02;9.18;;;5.80;67.00;;;;;;9176331;19;20014;-64
2022/03/01 08:53:54;;;;;;;15.48;8.73;;;5.90;67.10;;;;;;9176301;19;20007;-65
2022/03/01 08:56:59;;;;;;;17.17;9.40;;;6.00;67.00;;;;;;9178036;19;20010;-65
2022/03/01 09:00:05;;;;;;;20.98;9.38;;;6.10;67.00;;;;;;9179882;19;20099;-64
2022/03/01 09:03:13;;;;;;;17.42;9.38;;;6.10;66.90;;;;;;9179913;19;20018;-65
2022/03/01 09:06:38;;;;;;;15.82;8.27;;;6.20;66.80;;;;;;9179523;19;20026;-63
2022/03/01 09:09:43;;;;;;;22.17;9.43;;;6.30;66.80;;;;;;9180601;19;20094;-63
2022/03/01 09:12:48;;;;;;;20.77;9.30;;;6.40;66.70;;;;;;9180250;19;20014;-64
2022/03/01 09:15:53;;;;;;;23.00;9.55;;;6.50;66.70;;;;;;9181549;19;20034;-65
2022/03/01 09:19:01;;;;;;;23.67;8.48;;;6.50;66.60;;;;;;9184255;19;20090;-65
2022/03/01 09:22:06;;;;;;;18.42;9.27;;;6.60;66.60;;;;;;9184165;19;20015;-64
2022/03/01 09:25:12;;;;;;;19.50;9.65;;;6.70;66.60;;;;;;9180098;19;20025;-65
2022/03/01 09:28:17;;;;;;;20.38;8.98;;;6.80;66.70;;;;;;9171751;19;20021;-66
2022/03/01 09:31:22;;;;;;;23.73;9.48;;;6.90;67.20;;;;;;9173967;19;20026;-66
2022/03/01 09:34:30;;;;;;;18.17;10.07;;;7.00;66.60;;;;;;9177541;19;20019;-67
2022/03/01 09:37:36;;;;;;;20.08;9.25;;;7.10;66.60;;;;;;9178578;19;20014;-66
2022/03/01 09:40:41;;;;;;;29.52;9.80;;;7.20;66.50;;;;;;9180209;19;20022;-65
2022/03/01 09:43:46;;;;;;;18.85;9.77;;;7.30;66.50;;;;;;9181483;19;20014;-66
2022/03/01 09:46:52;;;;;;;22.40;9.98;;;7.50;66.50;;;;;;9179400;19;20048;-66
2022/03/01 09:50:00;;;;;;;17.05;9.43;;;7.60;66.50;;;;;;9179230;19;20018;-66
2022/03/01 09:53:06;;;;;;;16.23;9.10;;;7.70;66.50;;;;;;9174703;19;20121;-65
2022/03/01 09:56:13;;;;;;;18.98;9.07;;;7.90;66.40;;;;;;9177352;19;20023;-64
2022/03/01 09:59:19;;;;;;;18.02;8.90;;;8.00;66.30;;;;;;9166619;19;20034;-64
2022/03/01 10:02:35;;;;;;;18.23;9.70;;;8.20;66.20;;;;;;9179535;19;20086;-64
2022/03/01 10:05:44;;;;;;;21.70;9.35;;;8.40;66.10;;;;;;9177910;19;20070;-64
2022/03/01 10:08:54;;;;;;;22.58;10.20;;;8.50;65.90;;;;;;9177471;19;20073;-66
2022/03/01 10:12:06;;;;;;;18.17;9.65;;;8.60;65.70;;;;;;9180586;19;20078;-65
2022/03/01 10:15:14;;;;;;;17.42;9.20;;;8.80;65.60;;;;;;9178219;19;20041;-65
2022/03/01 10:18:19;;;;;;;19.58;9.25;;;8.90;65.60;;;;;;9177592;19;20024;-66
2022/03/01 10:21:29;;;;;;;19.73;9.73;;;9.00;65.50;;;;;;9173439;19;20020;-67
2022/03/01 10:24:34;;;;;;;18.02;8.90;;;9.20;65.40;;;;;;9176639;19;20114;-65
2022/03/01 10:27:40;;;;;;;27.05;11.00;;;9.30;65.30;;;;;;9174584;19;20025;-67
2022/03/01 10:30:45;;;;;;;24.73;10.27;;;9.40;65.20;;;;;;9173955;19;20591;-64
2022/03/01 10:33:56;;;;;;;21.17;8.80;;;9.60;65.10;;;;;;9178725;19;20018;-68
2022/03/01 10:37:04;;;;;;;21.98;10.00;;;9.70;64.80;;;;;;9176797;19;20053;-66
2022/03/01 10:40:15;;;;;;;17.95;10.10;;;9.80;64.80;;;;;;9179072;19;20022;-64
2022/03/01 10:43:22;;;;;;;26.90;10.50;;;9.90;64.50;;;;;;9180707;19;20065;-66
2022/03/01 10:46:28;;;;;;;17.40;8.80;;;10.00;64.50;;;;;;9179921;19;20014;-67
2022/03/01 10:49:35;;;;;;;17.27;9.38;;;10.10;64.30;;;;;;9182099;19;20026;-65
2022/03/01 10:52:50;;;;;;;16.00;9.60;;;10.10;64.20;;;;;;9176781;19;20047;-65
2022/03/01 10:56:02;;;;;;;24.17;9.15;;;10.20;64.00;;;;;;9175035;19;20026;-64
2022/03/01 10:59:08;;;;;;;18.95;9.05;;;10.30;63.80;;;;;;9177649;19;20346;-65
2022/03/01 11:02:16;;;;;;;17.42;9.98;;;10.30;63.90;;;;;;9177879;19;20019;-66
2022/03/01 11:05:26;;;;;;;18.48;10.05;;;10.40;63.90;;;;;;9179522;19;20488;-65
2022/03/01 11:08:55;;;;;;;18.17;9.40;;;10.50;63.80;;;;;;9171827;19;20010;-66
2022/03/01 11:12:01;;;;;;;17.73;9.90;;;10.50;63.60;;;;;;9173242;19;20033;-64
2022/03/01 11:15:17;;;;;;;19.02;9.55;;;10.60;63.70;;;;;;9179116;19;20026;-65
2022/03/01 11:18:40;;;;;;;18.17;9.45;;;10.60;63.50;;;;;;9174957;19;20006;-64
2022/03/01 11:21:49;;;;;;;17.92;9.77;;;10.70;63.20;;;;;;9176723;19;20018;-64
2022/03/01 11:24:57;;;;;;;16.95;9.57;;;10.70;63.30;;;;;;9175587;19;20011;-65
2022/03/01 11:28:07;;;;;;;23.48;11.23;;;10.80;63.30;;;;;;9173085;19;20023;-65
2022/03/01 11:31:24;;;;;;;17.98;9.98;;;10.80;63.20;;;;;;9174799;19;20022;-64
2022/03/01 11:34:30;;;;;;;21.10;10.20;;;10.90;63.00;;;;;;9175968;19;20020;-65
2022/03/01 11:37:35;;;;;;;16.42;9.38;;;11.00;63.30;;;;;;9174703;19;20026;-65
2022/03/01 11:40:45;;;;;;;25.02;9.57;;;11.10;63.20;;;;;;9171211;19;20444;-66
2022/03/01 11:43:56;;;;;;;19.45;9.25;;;11.20;63.10;;;;;;9169570;19;20453;-67
2022/03/01 11:47:09;;;;;;;19.55;9.05;;;11.30;63.00;;;;;;9169597;19;20090;-65
2022/03/01 11:50:17;;;;;;;21.38;10.65;;;11.50;62.90;;;;;;9170730;19;20325;-66
2022/03/01 11:53:23;;;;;;;21.10;10.52;;;11.60;62.80;;;;;;9169346;19;20022;-64
2022/03/01 11:56:31;;;;;;;18.30;10.40;;;11.70;62.70;;;;;;9172788;19;20026;-65
2022/03/01 11:59:40;;;;;;;21.50;10.30;;;11.80;62.40;;;;;;9174522;19;20029;-64
2022/03/01 12:02:54;;;;;;;19.40;9.48;;;11.90;62.30;;;;;;9171533;19;20475;-68
2022/03/01 12:06:01;;;;;;;18.88;9.90;;;12.00;62.30;;;;;;9176255;19;20015;-64
2022/03/01 12:09:09;;;;;;;22.63;9.38;;;12.10;62.20;;;;;;9176229;19;20022;-65
2022/03/01 12:12:17;;;;;;;21.98;10.18;;;12.20;62.00;;;;;;9172043;19;20021;-65
2022/03/01 12:15:29;;;;;;;18.70;9.73;;;12.20;61.80;;;;;;9171305;19;20044;-66
2022/03/01 12:18:38;;;;;;;23.58;10.57;;;12.30;61.70;;;;;;9175783;19;20348;-65
2022/03/01 12:21:50;;;;;;;19.17;10.07;;;12.30;61.70;;;;;;9175014;19;20627;-64
2022/03/01 12:24:55;;;;;;;16.00;9.57;;;12.30;61.40;;;;;;9174759;19;20037;-66
2022/03/01 12:28:03;;;;;;;21.80;10.45;;;12.40;61.60;;;;;;9172830;19;20033;-66
2022/03/01 12:31:10;;;;;;;17.85;10.50;;;12.40;61.40;;;;;;9180012;19;20029;-65
2022/03/01 12:34:15;;;;;;;16.77;9.48;;;12.40;61.50;;;;;;9181424;19;20073;-65
2022/03/01 12:37:20;;;;;;;15.77;10.05;;;12.40;61.50;;;;;;9183907;19;20019;-64
2022/03/01 12:40:30;;;;;;;19.63;10.60;;;12.40;61.50;;;;;;9182855;19;20019;-65
2022/03/01 12:43:37;;;;;;;20.52;10.25;;;12.50;61.30;;;;;;9184159;19;20010;-64
2022/03/01 12:46:44;;;;;;;18.38;10.98;;;12.50;61.20;;;;;;9183935;19;20014;-64
2022/03/01 12:49:49;;;;;;;19.08;9.90;;;12.50;61.20;;;;;;9182356;19;20014;-65
2022/03/01 12:52:56;;;;;;;18.52;10.15;;;12.50;61.20;;;;;;9183402;19;20018;-65
2022/03/01 12:56:01;;;;;;;23.10;10.88;;;12.50;61.10;;;;;;9180816;19;20018;-65
2022/03/01 12:59:12;;;;;;;17.98;10.07;;;12.50;61.00;;;;;;9179243;19;20370;-66
2022/03/01 13:02:18;;;;;;;25.50;11.18;;;12.50;60.80;;;;;;9170711;19;20022;-65
2022/03/01 13:05:28;;;;;;;27.60;11.30;;;12.50;61.00;;;;;;9181580;19;20467;-64
2022/03/01 13:08:34;;;;;;;17.50;10.43;;;12.50;60.80;;;;;;9183546;19;20360;-64
2022/03/01 13:11:40;;;;;;;26.35;10.18;;;12.40;60.80;;;;;;9184748;19;20029;-65
2022/03/01 13:14:48;;;;;;;18.88;10.45;;;12.40;60.80;;;;;;9185586;19;20464;-64
2022/03/01 13:17:54;;;;;;;18.17;10.40;;;12.40;60.70;;;;;;9179514;19;20019;-64
2022/03/01 13:20:59;;;;;;;22.27;11.88;;;12.40;60.70;;;;;;9179268;19;20033;-65
2022/03/01 13:24:08;;;;;;;22.17;11.80;;;12.40;60.70;;;;;;9181440;19;20034;-65
2022/03/01 13:27:17;;;;;;;21.77;11.88;;;12.40;60.70;;;;;;9178453;19;20011;-66
2022/03/01 13:30:27;;;;;;;23.25;11.18;;;12.40;60.70;;;;;;9181361;19;20014;-64
2022/03/01 13:33:32;;;;;;;22.73;11.63;;;12.30;60.50;;;;;;9184331;19;20018;-64
2022/03/01 13:36:40;;;;;;;22.00;10.38;;;12.30;60.60;;;;;;9183392;19;20022;-64
2022/03/01 13:39:47;;;;;;;22.42;10.65;;;12.30;60.50;;;;;;9180137;19;20018;-65
2022/03/01 13:42:52;;;;;;;18.85;10.77;;;12.30;60.50;;;;;;9179709;19;20105;-64
2022/03/01 13:46:06;;;;;;;21.02;10.13;;;12.30;60.50;;;;;;9179438;19;20007;-65
2022/03/01 13:49:12;;;;;;;23.30;11.45;;;12.30;60.40;;;;;;9179811;19;20098;-65
2022/03/01 13:52:20;;;;;;;19.70;10.40;;;12.20;60.40;;;;;;9180022;19;20014;-64
2022/03/01 13:55:27;;;;;;;21.25;10.82;;;12.20;60.40;;;;;;9179287;19;20018;-66
2022/03/01 13:58:32;;;;;;;19.60;10.25;;;12.20;60.40;;;;;;9179480;19;20041;-63
2022/03/01 14:01:49;;;;;;;21.70;11.82;;;12.20;60.40;;;;;;9177232;19;20137;-63
2022/03/01 14:04:59;;;;;;;;;;;12.20;60.20;;;;;;9179192;19;20022;-64
2022/03/01 14:08:06;;;;;;;22.67;11.05;;;12.20;60.60;;;;;;9176709;19;19919;-64
2022/03/01 14:11:16;;;;;;;27.33;10.77;;;12.20;60.60;;;;;;9175236;19;20021;-65
2022/03/01 14:14:21;;;;;;;25.70;10.95;;;12.20;60.30;;;;;;9179447;19;20014;-65
2022/03/01 14:17:30;;;;;;;23.25;11.02;;;12.20;60.40;;;;;;9181017;19;20702;-65
2022/03/01 14:20:35;;;;;;;20.52;10.20;;;12.20;60.50;;;;;;9178709;19;20022;-67
2022/03/01 14:23:42;;;;;;;26.52;11.00;;;12.20;60.20;;;;;;9181687;19;20015;-65
2022/03/01 14:26:47;;;;;;;30.27;15.40;;;12.10;60.10;;;;;;9177666;19;20022;-64
2022/03/01 14:29:52;;;;;;;34.63;20.05;;;12.10;60.00;;;;;;9174323;19;20019;-65
2022/03/01 14:33:00;;;;;;;51.17;28.75;;;12.10;60.00;;;;;;9180508;19;20494;-65
2022/03/01 14:36:06;;;;;;;42.25;22.58;;;12.10;60.00;;;;;;9179380;19;20014;-65
2022/03/01 14:39:11;;;;;;;22.02;12.07;;;12.00;60.00;;;;;;9178264;19;20377;-64
2022/03/01 14:42:16;;;;;;;37.70;15.02;;;12.00;60.00;;;;;;9179473;19;20014;-65
2022/03/01 14:45:21;;;;;;;87.38;40.65;;;12.00;60.00;;;;;;9177444;19;20014;-64
2022/03/01 14:48:30;;;;;;;215.50;98.82;;;11.90;60.00;;;;;;9178557;19;20484;-63
2022/03/01 14:51:36;;;;;;;93.63;47.30;;;11.90;59.80;;;;;;9176770;19;20025;-63
2022/03/01 14:54:41;;;;;;;74.43;37.70;;;11.90;59.90;;;;;;9174763;19;21496;-63
2022/03/01 14:57:46;;;;;;;35.63;19.25;;;11.80;59.90;;;;;;9178999;19;20456;-64
2022/03/01 15:00:53;;;;;;;26.77;14.48;;;11.80;59.90;;;;;;9180213;19;20026;-64
2022/03/01 15:04:03;;;;;;;28.92;12.05;;;11.80;59.90;;;;;;9179813;19;20021;-65
2022/03/01 15:07:08;;;;;;;21.42;11.35;;;11.70;59.80;;;;;;9178211;19;20464;-65
2022/03/01 15:10:15;;;;;;;21.95;12.65;;;11.70;59.80;;;;;;9175664;19;20018;-65
2022/03/01 15:13:20;;;;;;;25.85;11.43;;;11.70;59.90;;;;;;9176305;19;20022;-64
2022/03/01 15:16:25;;;;;;;22.77;11.63;;;11.60;59.80;;;;;;9178880;19;20022;-64
2022/03/01 15:19:34;;;;;;;22.88;11.32;;;11.60;59.80;;;;;;9179498;19;20408;-64
2022/03/01 15:22:39;;;;;;;20.90;11.52;;;11.60;59.80;;;;;;9178431;19;20022;-63
2022/03/01 15:25:45;;;;;;;23.23;10.98;;;11.60;59.80;;;;;;9178355;19;20025;-63
2022/03/01 15:28:50;;;;;;;21.25;11.73;;;11.60;59.80;;;;;;9170968;19;20015;-65
2022/03/01 15:31:55;;;;;;;19.38;11.10;;;11.50;59.60;;;;;;9172974;19;20024;-63
2022/03/01 15:35:02;;;;;;;22.52;11.45;;;11.50;59.60;;;;;;9172576;19;20488;-66
2022/03/01 15:38:08;;;;;;;22.55;11.48;;;11.50;59.60;;;;;;9171575;19;20010;-64
2022/03/01 15:41:13;;;;;;;24.35;11.27;;;11.40;59.50;;;;;;9174544;19;20022;-66
2022/03/01 15:44:18;;;;;;;22.25;11.88;;;11.40;59.50;;;;;;9172866;19;20030;-64
2022/03/01 15:47:24;;;;;;;21.98;12.38;;;11.40;59.50;;;;;;9177909;19;20480;-63
2022/03/01 15:50:32;;;;;;;22.85;12.07;;;11.40;59.50;;;;;;9163277;19;20022;-65
2022/03/01 15:53:38;;;;;;;26.00;13.20;;;11.30;59.40;;;;;;9168875;19;20021;-64
2022/03/01 15:56:43;;;;;;;21.17;11.75;;;11.30;59.40;;;;;;9170285;19;20019;-64
2022/03/01 15:59:49;;;;;;;26.52;11.57;;;11.30;59.40;;;;;;9171075;19;20329;-65
2022/03/01 16:02:54;;;;;;;24.05;12.57;;;11.30;59.40;;;;;;9169569;19;20014;-66